Time;durP1;ratioP1;P1;durP2;ratioP2;P2;SDS_P1;SDS_P2;PMS_P1;PMS_P2;Temp;Humidity;BMP_temperature;BMP_pressure;BME280_temperature;BME280_humidity;BME280_pressure;Samples;Min_cycle;Max_cycle;Signal;HPM_P1;HPM_P2
2022/11/12 00:00:49;;;;;;;31.67;17.23;;;9.20;99.90;;;;;;4954280;29;20449;-50
2022/11/12 00:03:14;;;;;;;29.20;17.93;;;9.20;99.90;;;;;;4950427;28;20198;-50
2022/11/12 00:05:40;;;;;;;30.80;17.77;;;9.20;1.00;;;;;;4955044;29;20469;-50
2022/11/12 00:08:06;;;;;;;28.23;16.20;;;9.20;1.00;;;;;;4956507;28;20816;-50
2022/11/12 00:10:31;;;;;;;33.33;17.27;;;9.20;99.90;;;;;;4955256;28;20232;-50
2022/11/12 00:12:58;;;;;;;27.00;16.70;;;9.20;1.00;;;;;;4955386;28;20193;-50
2022/11/12 00:15:25;;;;;;;29.33;16.87;;;9.20;46.30;;;;;;4956439;28;20190;-50
2022/11/12 00:17:50;;;;;;;28.30;17.30;;;9.20;1.00;;;;;;4956216;28;20425;-50
2022/11/12 00:20:16;;;;;;;29.17;15.33;;;9.20;99.90;;;;;;4956225;28;21114;-50
2022/11/12 00:22:42;;;;;;;25.90;15.40;;;9.30;99.90;;;;;;4955874;28;20201;-50
2022/11/12 00:25:08;;;;;;;24.73;16.53;;;9.30;1.00;;;;;;4955797;28;20202;-50
2022/11/12 00:27:34;;;;;;;31.33;16.60;;;9.20;1.00;;;;;;4955893;28;20174;-50
2022/11/12 00:30:00;;;;;;;24.70;15.37;;;9.20;99.90;;;;;;4956096;28;20460;-50
2022/11/12 00:32:26;;;;;;;28.33;16.63;;;9.30;99.90;;;;;;4952558;28;20472;-50
2022/11/12 00:34:52;;;;;;;28.20;15.73;;;9.30;1.00;;;;;;4954767;29;20452;-50
2022/11/12 00:37:17;;;;;;;26.40;15.40;;;9.30;99.90;;;;;;4955680;28;20433;-50
2022/11/12 00:39:44;;;;;;;26.33;16.17;;;9.30;1.00;;;;;;4954583;28;20202;-49
2022/11/12 00:42:10;;;;;;;22.37;14.93;;;9.40;99.90;;;;;;4955022;28;20189;-49
2022/11/12 00:44:35;;;;;;;24.07;14.23;;;9.50;99.90;;;;;;4955721;28;20476;-50
2022/11/12 00:47:01;;;;;;;25.93;15.33;;;9.50;1.00;;;;;;4954749;28;20807;-49
2022/11/12 00:49:26;;;;;;;24.73;15.40;;;9.50;99.90;;;;;;4955584;28;20636;-50
2022/11/12 00:51:52;;;;;;;24.77;15.17;;;9.50;99.90;;;;;;4954699;28;20568;-50
2022/11/12 00:54:18;;;;;;;22.23;13.83;;;9.50;5.10;;;;;;4955491;28;20181;-50
2022/11/12 00:56:46;;;;;;;23.77;14.40;;;9.50;1.00;;;;;;4955365;28;20514;-50
2022/11/12 00:59:12;;;;;;;25.93;14.90;;;9.50;1.00;;;;;;4955138;28;20281;-50
2022/11/12 01:01:38;;;;;;;24.17;13.40;;;9.40;1.00;;;;;;4954361;28;20493;-49
2022/11/12 01:04:04;;;;;;;21.50;14.07;;;9.40;1.00;;;;;;4953885;28;20516;-50
2022/11/12 01:06:30;;;;;;;24.90;14.53;;;9.40;1.00;;;;;;4955492;28;20205;-50
2022/11/12 01:08:55;;;;;;;24.10;14.13;;;9.40;1.00;;;;;;4955358;28;20560;-50
2022/11/12 01:11:27;;;;;;;19.53;14.20;;;9.40;1.00;;;;;;4954506;28;20194;-51
2022/11/12 01:13:55;;;;;;;26.70;14.80;;;9.40;1.00;;;;;;4955215;28;20177;-49
2022/11/12 01:16:23;;;;;;;22.00;14.27;;;9.50;1.00;;;;;;4954972;28;20962;-49
2022/11/12 01:18:56;;;;;;;22.77;14.43;;;9.40;1.00;;;;;;4955207;28;20460;-50
2022/11/12 01:21:23;;;;;;;23.57;14.87;;;9.50;99.90;;;;;;4954183;28;20927;-50
2022/11/12 01:23:49;;;;;;;19.63;13.60;;;9.50;99.90;;;;;;4954948;28;20476;-50
2022/11/12 01:26:17;;;;;;;18.43;13.37;;;9.50;99.90;;;;;;4954950;28;20417;-49
2022/11/12 01:28:43;;;;;;;24.60;13.20;;;9.60;99.90;;;;;;4954361;28;20166;-50
2022/11/12 01:31:16;;;;;;;25.50;13.70;;;9.60;99.90;;;;;;4954053;28;20536;-50
2022/11/12 01:33:43;;;;;;;25.60;13.60;;;9.60;29.40;;;;;;4954810;28;20426;-50
2022/11/12 01:36:10;;;;;;;21.93;14.77;;;9.60;2.70;;;;;;4953704;28;20477;-50
2022/11/12 01:38:38;;;;;;;24.87;14.10;;;9.60;1.00;;;;;;4954723;28;20508;-49
2022/11/12 01:41:05;;;;;;;22.27;15.63;;;9.60;1.00;;;;;;4952970;28;20453;-50
2022/11/12 01:43:31;;;;;;;24.77;14.50;;;9.60;1.00;;;;;;4954712;28;20838;-50
2022/11/12 01:45:58;;;;;;;23.13;15.50;;;9.60;1.00;;;;;;4954848;28;20493;-49
2022/11/12 01:48:24;;;;;;;26.10;14.83;;;9.60;1.00;;;;;;4954676;28;20182;-50
2022/11/12 01:50:50;;;;;;;23.50;14.30;;;9.60;1.00;;;;;;4948956;28;20485;-49
2022/11/12 01:53:16;;;;;;;23.17;14.27;;;9.60;1.00;;;;;;4954339;28;20198;-50
2022/11/12 01:55:42;;;;;;;22.60;14.43;;;9.60;1.00;;;;;;4952147;28;20945;-49
2022/11/12 01:58:08;;;;;;;21.60;14.80;;;9.60;1.00;;;;;;4953582;28;20194;-50
2022/11/12 02:00:34;;;;;;;20.50;14.60;;;9.60;1.00;;;;;;4953487;28;20202;-50
2022/11/12 02:03:03;;;;;;;21.70;15.10;;;9.60;1.00;;;;;;4954094;28;20516;-57
2022/11/12 02:05:30;;;;;;;23.43;15.00;;;9.60;1.00;;;;;;4953766;28;20959;-49
2022/11/12 02:07:57;;;;;;;20.07;14.20;;;9.60;1.00;;;;;;4954195;28;20731;-49
2022/11/12 02:10:24;;;;;;;25.33;15.60;;;9.60;1.00;;;;;;4953342;28;20456;-49
2022/11/12 02:15:47;;;;;;;24.50;14.00;;;9.60;1.00;;;;;;4985615;28;20427;-49
2022/11/12 02:18:12;;;;;;;20.40;14.47;;;9.60;1.00;;;;;;4953062;28;21102;-50
2022/11/12 02:20:38;;;;;;;21.93;14.47;;;9.60;1.00;;;;;;4952136;28;20190;-50
2022/11/12 02:23:06;;;;;;;24.43;15.00;;;9.70;99.90;;;;;;4953697;28;20198;-49
2022/11/12 02:25:31;;;;;;;23.57;14.33;;;9.60;99.90;;;;;;4952773;28;21039;-49
2022/11/12 02:27:58;;;;;;;23.13;13.80;;;9.60;99.90;;;;;;4951564;28;20488;-50
2022/11/12 02:30:41;;;;;;;21.73;15.17;;;9.60;99.90;;;;;;4944912;28;20198;-50
2022/11/12 02:33:06;;;;;;;24.20;14.90;;;9.50;99.90;;;;;;4950839;28;20924;-50
2022/11/12 02:35:32;;;;;;;24.13;14.43;;;9.50;1.00;;;;;;4951992;28;20512;-53
2022/11/12 02:37:58;;;;;;;22.83;14.83;;;9.50;1.00;;;;;;4939235;28;22084;-49
2022/11/12 02:40:24;;;;;;;31.30;15.03;;;9.50;99.90;;;;;;4941372;28;20462;-49
2022/11/12 02:42:49;;;;;;;22.53;14.53;;;9.40;99.90;;;;;;4953522;28;20277;-49
2022/11/12 02:45:16;;;;;;;21.57;14.30;;;9.30;99.90;;;;;;4953428;28;20225;-49
2022/11/12 02:47:41;;;;;;;29.27;16.03;;;9.30;99.90;;;;;;4952070;28;20197;-49
2022/11/12 02:50:08;;;;;;;28.37;14.40;;;9.20;1.00;;;;;;4953385;28;20480;-49
2022/11/12 02:52:34;;;;;;;22.47;15.23;;;9.10;1.00;;;;;;4952557;28;20192;-49
2022/11/12 02:55:00;;;;;;;25.37;15.87;;;9.10;1.00;;;;;;4953256;28;20422;-49
2022/11/12 02:57:26;;;;;;;23.53;15.30;;;9.00;1.00;;;;;;4952749;28;20476;-49
2022/11/12 02:59:51;;;;;;;23.60;16.07;;;9.00;1.00;;;;;;4953717;28;20296;-49
2022/11/12 03:02:17;;;;;;;25.57;16.60;;;8.90;1.00;;;;;;4953188;28;21127;-49
2022/11/12 03:04:43;;;;;;;23.53;15.53;;;8.80;1.00;;;;;;4952930;28;20288;-50
2022/11/12 03:07:08;;;;;;;21.77;14.83;;;8.80;1.00;;;;;;4952440;28;20193;-55
2022/11/12 03:09:34;;;;;;;23.47;15.40;;;8.80;1.00;;;;;;4947644;28;20664;-49
2022/11/12 03:11:59;;;;;;;21.63;15.30;;;8.80;1.00;;;;;;4953181;28;20170;-49
2022/11/12 03:14:25;;;;;;;24.70;15.07;;;8.80;1.00;;;;;;4953118;28;20194;-49
2022/11/12 03:16:51;;;;;;;24.53;15.37;;;8.70;1.00;;;;;;4951031;29;20198;-49
2022/11/12 03:19:16;;;;;;;24.87;15.77;;;8.70;1.00;;;;;;4953020;28;20234;-49
2022/11/12 03:21:42;;;;;;;22.37;14.80;;;8.60;1.00;;;;;;4953026;28;20192;-49
2022/11/12 03:24:08;;;;;;;28.67;17.20;;;8.60;1.00;;;;;;4952876;28;20575;-49
2022/11/12 03:26:33;;;;;;;22.57;15.47;;;8.60;1.00;;;;;;4952119;28;20619;-53
2022/11/12 03:28:59;;;;;;;27.50;16.43;;;8.60;1.00;;;;;;4951606;28;20197;-50
2022/11/12 03:31:25;;;;;;;23.67;16.40;;;8.50;1.00;;;;;;4947367;28;20293;-53
2022/11/12 03:33:51;;;;;;;24.33;15.83;;;8.50;1.00;;;;;;4952916;28;20174;-52
2022/11/12 03:36:16;;;;;;;26.90;16.10;;;8.40;1.00;;;;;;4951243;28;20445;-49
2022/11/12 03:38:42;;;;;;;26.57;16.60;;;8.20;1.00;;;;;;4953077;28;20961;-50
2022/11/12 03:41:07;;;;;;;26.67;16.77;;;8.20;99.90;;;;;;4952107;28;20178;-50
2022/11/12 03:43:33;;;;;;;24.47;15.13;;;8.10;99.90;;;;;;4952911;28;20186;-49
2022/11/12 03:45:59;;;;;;;26.13;16.80;;;8.00;99.90;;;;;;4952096;28;20194;-49
2022/11/12 03:48:24;;;;;;;27.40;17.40;;;7.90;1.00;;;;;;4946875;28;20613;-50
2022/11/12 03:50:50;;;;;;;28.80;16.40;;;7.90;1.00;;;;;;4951465;28;20197;-50
2022/11/12 03:53:15;;;;;;;23.80;17.60;;;7.90;99.90;;;;;;4952688;28;20201;-49
2022/11/12 03:55:41;;;;;;;26.20;17.13;;;7.80;99.90;;;;;;4952055;28;20268;-49
2022/11/12 03:58:07;;;;;;;26.20;16.60;;;7.80;99.90;;;;;;4952712;28;20178;-49
2022/11/12 04:00:32;;;;;;;26.13;15.80;;;7.70;1.00;;;;;;4952649;28;20648;-53
2022/11/12 04:02:58;;;;;;;28.00;17.40;;;7.70;21.90;;;;;;4951246;29;20916;-49
2022/11/12 04:08:37;;;;;;;28.23;16.87;;;7.50;99.90;;;;;;4933435;29;20712;-49
2022/11/12 04:11:13;;;;;;;25.20;16.73;;;7.50;99.90;;;;;;4933455;29;20402;-50
2022/11/12 04:13:40;;;;;;;27.40;17.83;;;7.50;1.00;;;;;;4933476;29;20881;-50
2022/11/12 04:21:50;;;;;;;28.93;18.27;;;7.40;99.30;;;;;;4952819;28;20452;-49
2022/11/12 04:27:00;;;;;;;28.57;17.20;;;7.30;99.90;;;;;;4951808;29;20483;-50
2022/11/12 04:32:15;;;;;;;28.50;18.23;;;7.30;1.00;;;;;;4967148;28;20453;-49
2022/11/12 04:34:41;;;;;;;32.07;19.43;;;7.40;19.00;;;;;;4949128;28;20544;-49
2022/11/12 04:37:07;;;;;;;32.93;18.70;;;7.30;32.70;;;;;;4950049;28;20445;-49
2022/11/12 04:39:32;;;;;;;29.23;18.73;;;7.30;1.00;;;;;;4954450;28;20198;-49
2022/11/12 04:47:47;;;;;;;30.17;18.80;;;7.20;61.50;;;;;;4954496;29;20451;-50
2022/11/12 04:50:15;;;;;;;34.17;18.50;;;7.30;99.90;;;;;;4955601;28;20810;-49
2022/11/12 04:52:41;;;;;;;26.60;18.13;;;7.30;99.90;;;;;;4950002;28;20444;-49
2022/11/12 04:55:07;;;;;;;28.93;18.17;;;7.30;1.00;;;;;;4954728;28;20903;-49
2022/11/12 04:57:33;;;;;;;27.50;18.00;;;7.30;1.00;;;;;;4954386;28;20610;-50
2022/11/12 04:59:59;;;;;;;27.23;18.10;;;7.30;99.90;;;;;;4955563;28;20432;-49
2022/11/12 05:02:24;;;;;;;27.37;18.30;;;7.20;51.70;;;;;;4955365;28;20289;-50
2022/11/12 05:04:50;;;;;;;37.07;17.70;;;7.20;45.40;;;;;;4955324;28;20569;-49
2022/11/12 05:07:16;;;;;;;28.20;18.23;;;7.20;13.60;;;;;;4954898;28;21026;-49
2022/11/12 05:09:41;;;;;;;26.83;19.73;;;7.10;1.00;;;;;;4955204;28;20184;-49
2022/11/12 05:12:08;;;;;;;28.07;17.87;;;7.10;1.00;;;;;;4955214;28;20612;-49
2022/11/12 05:14:33;;;;;;;29.60;18.77;;;7.00;1.00;;;;;;4955150;28;20418;-49
2022/11/12 05:17:00;;;;;;;30.53;18.37;;;7.10;1.00;;;;;;4954575;28;20457;-49
2022/11/12 05:19:25;;;;;;;33.37;19.30;;;7.10;70.20;;;;;;4955424;28;20178;-50
2022/11/12 05:22:06;;;;;;;26.90;17.37;;;7.10;1.00;;;;;;4954226;28;20455;-50
2022/11/12 05:24:36;;;;;;;30.43;19.40;;;7.10;1.00;;;;;;4954971;28;20193;-49
2022/11/12 05:27:02;;;;;;;33.57;18.67;;;7.00;1.00;;;;;;4954224;28;20444;-49
2022/11/12 05:29:27;;;;;;;27.77;18.33;;;7.00;1.00;;;;;;4954870;28;20892;-49
2022/11/12 05:31:53;;;;;;;28.50;17.53;;;7.00;1.00;;;;;;4950199;28;20446;-49
2022/11/12 05:34:19;;;;;;;29.53;19.73;;;7.00;1.00;;;;;;4935840;29;20191;-49
2022/11/12 05:36:44;;;;;;;31.40;19.00;;;7.00;1.00;;;;;;4951989;29;20197;-49
2022/11/12 05:39:10;;;;;;;29.53;18.30;;;7.00;99.90;;;;;;4954601;28;20189;-49
2022/11/12 05:41:36;;;;;;;31.50;18.20;;;7.00;99.90;;;;;;4952486;28;20352;-52
2022/11/12 05:44:01;;;;;;;29.17;17.80;;;7.00;43.80;;;;;;4954642;28;20217;-49
2022/11/12 05:46:27;;;;;;;35.43;18.37;;;7.00;1.00;;;;;;4953869;28;20298;-49
2022/11/12 05:48:52;;;;;;;26.03;16.03;;;6.80;99.90;;;;;;4948961;28;20190;-49
2022/11/12 05:51:18;;;;;;;25.47;18.10;;;6.80;99.90;;;;;;4952903;28;20189;-49
2022/11/12 05:53:44;;;;;;;27.07;17.07;;;6.70;3.00;;;;;;4954538;28;20248;-49
2022/11/12 05:56:10;;;;;;;28.87;18.23;;;6.60;1.00;;;;;;4953762;28;20659;-50
2022/11/12 05:58:36;;;;;;;30.47;18.70;;;6.50;1.00;;;;;;4954346;28;20218;-49
2022/11/12 06:01:02;;;;;;;34.23;19.80;;;6.40;99.90;;;;;;4954395;28;20508;-49
2022/11/12 06:03:28;;;;;;;29.87;18.33;;;6.40;1.00;;;;;;4953634;28;20277;-50
2022/11/12 06:05:53;;;;;;;28.83;18.27;;;6.30;99.90;;;;;;4948758;28;20565;-49
2022/11/12 06:08:19;;;;;;;28.73;18.57;;;6.30;1.00;;;;;;4954152;28;20288;-49
2022/11/12 06:10:49;;;;;;;33.53;18.57;;;6.20;47.50;;;;;;4953651;28;20182;-50
2022/11/12 06:13:15;;;;;;;33.23;19.80;;;6.20;99.90;;;;;;4951801;28;20576;-50
2022/11/12 06:15:41;;;;;;;30.33;18.60;;;6.20;99.90;;;;;;4951797;29;20968;-50
2022/11/12 06:18:07;;;;;;;30.00;18.60;;;6.20;99.90;;;;;;4953222;28;20437;-50
2022/11/12 06:20:33;;;;;;;33.60;20.10;;;6.20;97.60;;;;;;4953995;28;20532;-49
2022/11/12 06:22:58;;;;;;;40.87;19.50;;;6.30;99.90;;;;;;4953193;28;20204;-49
2022/11/12 06:25:24;;;;;;;36.43;21.20;;;6.20;1.00;;;;;;4953733;28;20473;-49
2022/11/12 06:27:50;;;;;;;33.40;20.47;;;6.20;1.00;;;;;;4953822;28;20245;-49
2022/11/12 06:30:15;;;;;;;30.73;19.60;;;6.30;99.90;;;;;;4953770;28;20190;-49
2022/11/12 06:32:41;;;;;;;35.90;19.67;;;6.30;99.90;;;;;;4948972;28;20255;-50
2022/11/12 06:35:07;;;;;;;35.40;21.20;;;6.20;99.90;;;;;;4952353;28;20340;-50
2022/11/12 06:37:32;;;;;;;32.77;19.13;;;6.20;99.90;;;;;;4951724;29;20193;-49
2022/11/12 06:39:58;;;;;;;28.50;17.73;;;6.20;99.90;;;;;;4952921;28;20460;-49
2022/11/12 06:42:23;;;;;;;34.23;19.77;;;6.10;99.90;;;;;;4952570;28;20280;-49
2022/11/12 06:44:49;;;;;;;35.23;19.53;;;6.00;77.30;;;;;;4953719;28;20205;-49
2022/11/12 06:47:15;;;;;;;27.93;18.43;;;6.00;46.20;;;;;;4952647;28;20185;-49
2022/11/12 06:49:40;;;;;;;33.10;18.53;;;6.00;99.90;;;;;;4953381;28;20280;-49
2022/11/12 06:52:06;;;;;;;31.77;21.20;;;6.00;1.00;;;;;;4946965;28;20190;-50
2022/11/12 06:54:31;;;;;;;33.80;20.20;;;5.90;1.00;;;;;;4934274;29;20277;-49
2022/11/12 06:56:57;;;;;;;37.03;19.80;;;5.90;99.90;;;;;;4934048;29;20179;-50
2022/11/12 06:59:22;;;;;;;35.00;21.40;;;5.90;1.00;;;;;;4934260;29;20708;-49
2022/11/12 07:01:48;;;;;;;33.30;18.00;;;5.90;1.00;;;;;;4950096;28;20612;-50
2022/11/12 07:04:14;;;;;;;32.43;20.90;;;5.90;43.20;;;;;;4953161;28;20336;-49
2022/11/12 07:06:39;;;;;;;41.30;22.00;;;6.00;99.90;;;;;;4953287;28;20182;-49
2022/11/12 07:09:05;;;;;;;33.03;18.70;;;6.00;99.90;;;;;;4951944;28;20201;-49
2022/11/12 07:11:31;;;;;;;34.47;21.30;;;6.00;99.90;;;;;;4953135;28;20185;-49
2022/11/12 07:13:57;;;;;;;48.37;23.27;;;6.00;99.90;;;;;;4953495;28;20922;-49
2022/11/12 07:16:22;;;;;;;36.47;22.00;;;6.10;99.90;;;;;;4953102;28;20192;-50
2022/11/12 07:18:48;;;;;;;32.43;21.07;;;6.10;99.90;;;;;;4952930;28;20544;-49
2022/11/12 07:21:17;;;;;;;36.77;22.47;;;6.10;1.00;;;;;;4953383;28;20185;-49
2022/11/12 07:23:42;;;;;;;37.07;21.50;;;6.10;1.00;;;;;;4951097;28;20481;-50
2022/11/12 07:26:26;;;;;;;32.50;20.13;;;6.10;1.00;;;;;;4951609;28;20445;-52
2022/11/12 07:28:54;;;;;;;36.70;22.70;;;6.10;1.00;;;;;;4953035;28;20185;-49
2022/11/12 07:31:20;;;;;;;39.37;23.80;;;6.20;1.00;;;;;;4952887;28;20858;-49
2022/11/12 07:33:49;;;;;;;35.27;21.10;;;6.30;1.00;;;;;;4952863;28;20417;-49
2022/11/12 07:36:17;;;;;;;31.93;20.10;;;6.30;1.00;;;;;;4948155;28;20186;-49
2022/11/12 07:38:43;;;;;;;34.50;20.70;;;6.30;1.00;;;;;;4946859;28;20536;-49
2022/11/12 07:41:14;;;;;;;37.20;20.67;;;6.40;1.00;;;;;;4933839;29;20426;-49
2022/11/12 07:43:42;;;;;;;42.77;25.03;;;6.40;1.00;;;;;;4933674;29;20417;-50
2022/11/12 07:46:11;;;;;;;35.13;21.20;;;6.40;1.00;;;;;;4933534;29;20798;-49
2022/11/12 07:48:38;;;;;;;34.83;20.87;;;6.40;1.00;;;;;;4941892;28;20442;-50
2022/11/12 07:51:06;;;;;;;35.67;20.93;;;6.50;1.00;;;;;;4951869;29;20428;-50
2022/11/12 07:53:32;;;;;;;34.70;20.30;;;6.60;1.00;;;;;;4952160;28;21014;-50
2022/11/12 07:56:00;;;;;;;38.00;21.53;;;6.60;1.00;;;;;;4951498;28;20445;-50
2022/11/12 07:58:28;;;;;;;31.70;21.47;;;6.70;1.00;;;;;;4951695;28;20448;-50
2022/11/12 08:00:54;;;;;;;31.70;20.87;;;6.70;1.00;;;;;;4952568;28;20970;-49
2022/11/12 08:03:22;;;;;;;32.63;20.40;;;6.70;1.00;;;;;;4951322;28;20561;-49
2022/11/12 08:05:47;;;;;;;34.80;19.93;;;6.70;1.00;;;;;;4950134;28;20461;-49
2022/11/12 08:08:13;;;;;;;31.70;18.50;;;6.70;1.00;;;;;;4952134;28;21148;-50
2022/11/12 08:10:39;;;;;;;35.97;21.77;;;6.80;1.00;;;;;;4952532;28;20198;-50
2022/11/12 08:13:04;;;;;;;38.10;21.70;;;6.80;1.00;;;;;;4952183;28;20607;-50
2022/11/12 08:15:30;;;;;;;39.47;22.90;;;6.90;1.00;;;;;;4954779;28;20197;-50
2022/11/12 08:17:56;;;;;;;34.53;22.70;;;7.00;1.00;;;;;;4955033;28;20198;-50
2022/11/12 08:20:22;;;;;;;36.67;22.50;;;7.10;1.00;;;;;;4956273;28;20508;-50
2022/11/12 08:22:48;;;;;;;36.67;22.47;;;7.10;1.00;;;;;;4954307;28;20206;-50
2022/11/12 08:25:13;;;;;;;41.13;23.87;;;7.30;1.00;;;;;;4949200;29;20224;-50
2022/11/12 08:27:39;;;;;;;35.37;20.27;;;7.40;1.00;;;;;;4953840;28;20476;-50
2022/11/12 08:30:06;;;;;;;41.33;23.10;;;7.40;1.00;;;;;;4955104;28;20221;-49
2022/11/12 08:32:31;;;;;;;35.53;22.53;;;7.40;1.00;;;;;;4955475;28;20288;-50
2022/11/12 08:34:57;;;;;;;41.87;22.73;;;7.50;1.00;;;;;;4954537;28;20516;-52
2022/11/12 08:37:23;;;;;;;41.10;23.03;;;7.50;1.00;;;;;;4954168;28;20190;-49
2022/11/12 08:39:48;;;;;;;33.00;21.17;;;7.60;1.00;;;;;;4954495;29;20252;-49
2022/11/12 08:42:14;;;;;;;36.13;22.00;;;7.70;1.00;;;;;;4949296;28;20217;-49
2022/11/12 08:44:39;;;;;;;35.73;21.83;;;7.70;99.90;;;;;;4955077;28;20210;-50
2022/11/12 08:47:05;;;;;;;31.83;21.27;;;7.80;99.90;;;;;;4952789;28;20197;-49
2022/11/12 08:49:30;;;;;;;37.17;22.23;;;7.80;91.50;;;;;;4955332;28;20189;-49
2022/11/12 08:51:56;;;;;;;36.63;21.60;;;7.90;1.00;;;;;;4954897;28;20563;-50
2022/11/12 08:54:23;;;;;;;33.37;20.70;;;8.10;99.90;;;;;;4953836;28;20580;-49
2022/11/12 08:56:49;;;;;;;34.13;22.50;;;8.10;1.00;;;;;;4954994;28;20219;-49
2022/11/12 08:59:15;;;;;;;33.30;20.00;;;8.20;1.00;;;;;;4955782;28;20402;-49
2022/11/12 09:01:40;;;;;;;27.87;19.53;;;8.40;99.90;;;;;;4951924;28;20259;-49
2022/11/12 09:04:06;;;;;;;35.13;19.87;;;8.50;1.00;;;;;;4954230;28;20241;-50
2022/11/12 09:06:32;;;;;;;29.97;18.60;;;8.50;99.90;;;;;;4954555;28;20182;-49
2022/11/12 09:08:57;;;;;;;31.27;20.73;;;8.50;1.00;;;;;;4955670;28;20178;-49
2022/11/12 09:11:23;;;;;;;33.10;19.10;;;8.60;1.00;;;;;;4951116;28;20664;-49
2022/11/12 09:13:51;;;;;;;30.80;19.17;;;8.70;1.00;;;;;;4945504;29;20679;-49
2022/11/12 09:16:16;;;;;;;24.97;16.93;;;8.80;99.90;;;;;;4954646;28;20252;-49
2022/11/12 09:18:42;;;;;;;32.97;18.30;;;8.90;99.90;;;;;;4952644;28;20826;-49
2022/11/12 09:21:11;;;;;;;31.50;18.73;;;9.00;87.00;;;;;;4954409;28;20189;-50
2022/11/12 09:23:37;;;;;;;35.83;19.43;;;9.20;1.00;;;;;;4953654;28;20194;-49
2022/11/12 09:26:03;;;;;;;28.27;17.17;;;9.30;1.00;;;;;;4953255;28;20465;-49
2022/11/12 09:28:28;;;;;;;27.90;18.40;;;9.40;99.90;;;;;;4954100;28;20597;-49
2022/11/12 09:30:55;;;;;;;29.40;17.40;;;9.40;99.90;;;;;;4954452;28;20445;-49
2022/11/12 09:33:22;;;;;;;29.70;19.37;;;9.50;99.90;;;;;;4953424;28;20633;-49
2022/11/12 09:35:48;;;;;;;26.63;19.20;;;9.50;99.90;;;;;;4953277;28;20445;-49
2022/11/12 09:38:16;;;;;;;31.07;19.50;;;9.60;99.90;;;;;;4954853;28;20421;-49
2022/11/12 09:40:51;;;;;;;31.10;20.73;;;9.60;99.90;;;;;;4952401;28;20441;-50
2022/11/12 09:43:36;;;;;;;36.47;19.90;;;9.80;99.90;;;;;;4954463;28;20425;-51
2022/11/12 09:46:26;;;;;;;28.97;19.73;;;9.90;99.90;;;;;;4954091;28;20491;-51
2022/11/12 09:49:10;;;;;;;30.67;19.70;;;10.20;99.90;;;;;;4971011;28;20956;-51
2022/11/12 09:51:41;;;;;;;26.13;18.13;;;10.70;91.80;;;;;;4951933;28;20528;-51
2022/11/12 09:54:26;;;;;;;28.93;17.73;;;11.30;21.20;;;;;;4954564;28;20879;-51
2022/11/12 09:56:53;;;;;;;28.60;18.40;;;11.80;1.00;;;;;;4954192;28;20429;-50
2022/11/12 09:59:19;;;;;;;23.53;16.93;;;12.20;1.00;;;;;;4953597;28;20794;-50
2022/11/12 10:02:03;;;;;;;26.60;17.40;;;12.20;1.00;;;;;;4953575;28;20488;-50
2022/11/12 10:04:38;;;;;;;27.90;18.20;;;12.40;1.00;;;;;;4952837;29;20544;-50
2022/11/12 10:07:19;;;;;;;30.37;16.80;;;12.80;1.00;;;;;;4953783;28;20464;-51
2022/11/12 10:10:04;;;;;;;29.07;16.33;;;12.90;1.00;;;;;;4951713;28;20925;-51
2022/11/12 10:12:41;;;;;;;27.20;16.90;;;13.00;1.00;;;;;;4953103;29;20448;-51
2022/11/12 10:18:33;;;;;;;28.47;16.43;;;13.20;1.00;;;;;;4952617;29;20460;-50
2022/11/12 10:21:12;;;;;;;28.27;16.03;;;13.80;1.00;;;;;;4949440;29;20855;-50
2022/11/12 10:23:44;;;;;;;21.33;14.93;;;14.40;1.00;;;;;;4951510;28;20503;-50
2022/11/12 10:26:15;;;;;;;29.07;15.87;;;15.10;1.00;;;;;;4945884;28;20483;-51
2022/11/12 10:29:02;;;;;;;25.43;15.40;;;15.70;1.00;;;;;;4950819;28;20452;-51
2022/11/12 10:31:27;;;;;;;29.00;14.60;;;16.70;1.00;;;;;;4953011;28;20580;-50
2022/11/12 10:34:08;;;;;;;27.03;15.13;;;17.50;1.00;;;;;;4951308;28;20524;-50
2022/11/12 10:36:37;;;;;;;22.93;13.87;;;19.20;1.00;;;;;;4949542;28;20656;-51
2022/11/12 10:39:04;;;;;;;30.43;16.00;;;20.80;1.00;;;;;;4951928;28;20445;-51
2022/11/12 10:41:32;;;;;;;26.83;15.13;;;22.20;1.00;;;;;;4952369;28;20446;-51
2022/11/12 10:43:58;;;;;;;21.90;14.10;;;23.10;1.00;;;;;;4953325;28;21263;-51
2022/11/12 10:46:29;;;;;;;19.10;13.17;;;23.60;1.00;;;;;;4947309;28;20457;-51
2022/11/12 10:49:02;;;;;;;21.80;13.47;;;23.90;99.90;;;;;;4951968;28;20193;-50
2022/11/12 10:51:32;;;;;;;20.33;14.00;;;24.50;99.90;;;;;;4952238;28;20397;-50
2022/11/12 10:53:58;;;;;;;18.30;13.03;;;24.80;99.90;;;;;;4950790;29;20433;-51
2022/11/12 10:56:30;;;;;;;15.67;11.03;;;25.30;99.90;;;;;;4952277;28;20401;-51
2022/11/12 10:59:16;;;;;;;13.87;10.87;;;25.60;99.90;;;;;;4950211;28;20440;-50
2022/11/12 11:01:53;;;;;;;14.97;10.97;;;25.60;99.90;;;;;;4955751;28;20657;-51
2022/11/12 11:04:26;;;;;;;13.00;10.50;;;26.00;99.90;;;;;;4950710;28;20480;-51
2022/11/12 11:07:23;;;;;;;17.07;10.67;;;26.10;99.90;;;;;;4951495;28;20925;-50
2022/11/12 11:09:54;;;;;;;13.53;10.97;;;25.50;99.90;;;;;;4932429;29;20428;-49
2022/11/12 11:12:31;;;;;;;17.07;12.80;;;24.70;99.90;;;;;;4936214;28;20450;-50
2022/11/12 11:15:14;;;;;;;15.53;10.60;;;23.80;99.90;;;;;;4932461;29;20473;-50
2022/11/12 11:17:40;;;;;;;15.67;11.70;;;23.20;99.90;;;;;;4937602;28;20993;-50
2022/11/12 11:20:43;;;;;;;15.77;12.20;;;22.50;99.90;;;;;;4951598;28;20457;-50
2022/11/12 11:23:14;;;;;;;17.17;12.07;;;21.60;99.90;;;;;;4951152;28;20212;-50
2022/11/12 11:25:42;;;;;;;15.77;11.27;;;21.10;99.90;;;;;;4950533;28;20473;-50
2022/11/12 11:28:29;;;;;;;20.63;13.60;;;21.00;99.90;;;;;;4952252;28;20810;-50
2022/11/12 11:31:16;;;;;;;17.50;13.07;;;21.60;99.90;;;;;;4951187;28;20425;-49
2022/11/12 11:34:26;;;;;;;19.23;12.63;;;21.50;99.90;;;;;;4951434;28;20520;-50
2022/11/12 11:37:02;;;;;;;22.20;14.07;;;21.00;99.90;;;;;;4962692;28;20480;-50
2022/11/12 11:39:45;;;;;;;27.70;13.77;;;20.30;99.90;;;;;;4949630;28;20504;-50
2022/11/12 11:42:13;;;;;;;21.43;14.43;;;20.10;99.90;;;;;;4939668;29;20452;-49
2022/11/12 11:44:54;;;;;;;29.97;15.53;;;20.20;99.90;;;;;;4951171;28;20467;-50
2022/11/12 11:48:15;;;;;;;24.13;15.23;;;20.80;99.90;;;;;;4952223;28;20459;-50
2022/11/12 11:51:22;;;;;;;20.03;13.80;;;21.80;99.90;;;;;;4950084;28;20445;-50
2022/11/12 11:54:06;;;;;;;18.20;13.67;;;21.60;99.90;;;;;;4935516;28;20528;-49
2022/11/12 11:56:39;;;;;;;25.27;14.03;;;20.90;99.90;;;;;;4955834;28;20441;-49
2022/11/12 11:59:07;;;;;;;24.50;14.60;;;20.70;99.90;;;;;;4944120;28;20812;-49
2022/11/12 12:01:53;;;;;;;19.07;13.17;;;20.20;99.90;;;;;;4955886;28;20561;-50
2022/11/12 12:04:40;;;;;;;17.13;13.17;;;19.70;99.90;;;;;;4956352;28;20472;-49
2022/11/12 12:07:23;;;;;;;18.10;12.20;;;19.30;99.90;;;;;;4955900;28;20523;-50
2022/11/12 12:09:59;;;;;;;18.30;12.53;;;18.80;99.90;;;;;;4954897;28;20432;-49
2022/11/12 12:12:35;;;;;;;24.93;13.50;;;18.40;99.90;;;;;;4953922;28;20433;-49
2022/11/12 12:15:22;;;;;;;18.33;12.97;;;17.70;99.90;;;;;;4954989;28;20421;-50
2022/11/12 12:18:19;;;;;;;23.90;13.00;;;17.30;99.90;;;;;;4954446;28;20441;-50
2022/11/12 12:21:12;;;;;;;17.40;13.03;;;16.80;99.90;;;;;;4956089;28;20401;-49
2022/11/12 12:23:47;;;;;;;13.77;11.57;;;16.20;99.90;;;;;;4955070;28;20449;-50
2022/11/12 12:26:34;;;;;;;20.73;13.23;;;15.80;99.90;;;;;;4955051;28;20499;-50
2022/11/12 12:29:19;;;;;;;21.37;12.67;;;15.50;99.90;;;;;;4956545;28;20424;-49
2022/11/12 12:31:51;;;;;;;19.40;13.67;;;15.30;99.90;;;;;;4955568;28;20433;-49
2022/11/12 12:34:23;;;;;;;16.87;12.00;;;15.10;99.90;;;;;;4956032;28;20414;-50
2022/11/12 12:36:59;;;;;;;20.37;11.83;;;15.00;99.90;;;;;;4955721;28;20425;-49
2022/11/12 12:39:56;;;;;;;19.07;12.47;;;14.90;1.00;;;;;;4955883;28;20423;-49
2022/11/12 12:42:27;;;;;;;18.27;11.53;;;14.80;1.00;;;;;;4942320;28;20931;-49
2022/11/12 12:45:16;;;;;;;18.77;13.00;;;14.60;1.00;;;;;;4955126;28;20475;-50
2022/11/12 12:47:43;;;;;;;17.73;12.30;;;14.40;1.00;;;;;;4954019;28;20456;-49
2022/11/12 12:50:14;;;;;;;22.47;13.43;;;14.30;1.00;;;;;;4954448;28;20532;-49
2022/11/12 12:53:03;;;;;;;19.77;12.00;;;14.20;1.00;;;;;;4952764;28;20866;-49
2022/11/12 12:55:43;;;;;;;22.93;13.27;;;14.10;1.00;;;;;;4952563;28;20820;-49
2022/11/12 12:58:28;;;;;;;18.53;11.33;;;14.00;1.00;;;;;;4954764;28;20449;-49
2022/11/12 13:01:06;;;;;;;17.07;10.90;;;13.90;1.00;;;;;;4952635;28;20445;-49
2022/11/12 13:04:02;;;;;;;18.43;12.47;;;13.90;1.00;;;;;;4949963;28;20464;-50
2022/11/12 13:06:50;;;;;;;25.50;14.47;;;13.70;1.00;;;;;;4952174;28;20453;-49
2022/11/12 13:09:16;;;;;;;20.93;12.20;;;13.70;1.00;;;;;;4951773;28;20495;-50
2022/11/12 13:14:35;;;;;;;29.40;13.20;;;13.50;1.00;;;;;;4953462;28;20208;-53
2022/11/12 13:17:15;;;;;;;20.00;12.57;;;13.50;1.00;;;;;;4954538;28;20530;-49
2022/11/12 13:19:53;;;;;;;21.73;13.13;;;13.50;1.00;;;;;;4954750;28;20524;-49
2022/11/12 13:22:18;;;;;;;20.63;12.53;;;13.60;1.00;;;;;;4954205;28;20480;-49